| time (UTC) | temp F | wind direction | speed MPH | gust MPH | rain 1hr in | rain 24hr in | rain mn in | humidity % | barometer mb |
| 20260507164520 | 54 | 65 | 4.0 | 9.0 | 0.00 | 0.28 | 0.00 | 32 | 1023.6 |
| 20260507163017 | 53 | 38 | 5.0 | 10.0 | 0.00 | 0.28 | 0.00 | 36 | 1023.8 |
| 20260507161512 | 52 | 5 | 4.0 | 8.0 | 0.00 | 0.28 | 0.00 | 38 | 1024.0 |
| 20260507160009 | 51 | 311 | 6.0 | 13.0 | 0.00 | 0.28 | 0.00 | 42 | 1024.2 |
| 20260507154506 | 50 | 42 | 3.0 | 7.0 | 0.00 | 0.28 | 0.00 | 46 | 1024.3 |
| 20260507153004 | 48 | 325 | 5.0 | 9.0 | 0.00 | 0.28 | 0.00 | 48 | 1024.5 |
| 20260507151558 | 47 | 342 | 4.0 | 8.0 | 0.00 | 0.28 | 0.00 | 50 | 1024.8 |
| 20260507150054 | 46 | 10 | 3.0 | 9.0 | 0.00 | 0.28 | 0.00 | 53 | 1025.0 |
| 20260507144551 | 45 | 343 | 4.0 | 10.0 | 0.00 | 0.28 | 0.00 | 53 | 1024.9 |
| 20260507143048 | 44 | 5 | 4.0 | 11.0 | 0.00 | 0.28 | 0.00 | 53 | 1025.1 |
| 20260507141549 | 43 | 22 | 3.0 | 9.0 | 0.00 | 0.28 | 0.00 | 54 | 1025.2 |
| 20260507134536 | 40 | 27 | 2.0 | 6.0 | 0.00 | 0.28 | 0.00 | 57 | 1025.4 |
| 20260507133032 | 38 | 355 | 3.0 | 6.0 | 0.00 | 0.28 | 0.00 | 58 | 1025.4 |
| 20260507131528 | 37 | 355 | 3.0 | 6.0 | 0.00 | 0.28 | 0.00 | 60 | 1025.3 |
| 20260507130024 | 35 | 355 | 4.0 | 8.0 | 0.00 | 0.28 | 0.00 | 61 | 1025.4 |
| 20260507124524 | 34 | 19 | 3.0 | 6.0 | 0.00 | 0.28 | 0.00 | 63 | 1025.2 |
| 20260507123016 | 32 | 355 | 3.0 | 6.0 | 0.00 | 0.28 | 0.00 | 66 | 1025.0 |
| 20260507121513 | 31 | 5 | 2.0 | 6.0 | 0.00 | 0.28 | 0.00 | 66 | 1024.9 |
| 20260507120011 | 30 | 9 | 2.0 | 5.0 | 0.00 | 0.28 | 0.00 | 67 | 1024.9 |
| 20260507114510 | 30 | 5 | 2.0 | 4.0 | 0.00 | 0.28 | 0.00 | 67 | 1025.0 |
| 20260507113009 | 30 | 15 | 2.0 | 5.0 | 0.00 | 0.28 | 0.00 | 67 | 1025.0 |
| 20260507111510 | 29 | 5 | 2.0 | 5.0 | 0.00 | 0.28 | 0.00 | 69 | 1025.0 |
| 20260507110005 | 28 | 9 | 2.0 | 5.0 | 0.00 | 0.28 | 0.00 | 71 | 1025.0 |
| 20260507104503 | 28 | 342 | 1.0 | 3.0 | 0.00 | 0.28 | 0.00 | 72 | 1024.9 |
| 20260507103100 | 28 | 5 | 2.0 | 5.0 | 0.00 | 0.28 | 0.00 | 73 | 1025.1 |
| 20260507101558 | 27 | 351 | 1.0 | 3.0 | 0.00 | 0.28 | 0.00 | 76 | 1025.3 |
| 20260507100059 | 27 | 346 | 1.0 | 3.0 | 0.00 | 0.28 | 0.00 | 77 | 1025.4 |
| 20260507094556 | 27 | 350 | 1.0 | 3.0 | 0.00 | 0.28 | 0.00 | 78 | 1025.3 |
| 20260507093055 | 27 | 346 | 1.0 | 2.0 | 0.00 | 0.28 | 0.00 | 77 | 1025.4 |
| 20260507091553 | 28 | 347 | 0.0 | 3.0 | 0.00 | 0.28 | 0.00 | 76 | 1025.7 |
| 20260507090051 | 28 | 355 | 2.0 | 4.0 | 0.00 | 0.28 | 0.00 | 76 | 1025.9 |
| 20260507084554 | 28 | 355 | 2.0 | 5.0 | 0.00 | 0.28 | 0.00 | 78 | 1025.9 |
| 20260507083053 | 28 | 360 | 2.0 | 5.0 | 0.00 | 0.28 | 0.00 | 78 | 1026.0 |
| 20260507081545 | 27 | 342 | 3.0 | 5.0 | 0.00 | 0.28 | 0.00 | 81 | 1026.0 |
| 20260507080100 | 27 | 350 | 2.0 | 6.0 | 0.00 | 0.28 | 0.00 | 83 | 1026.0 |
| 20260507074545 | 27 | 360 | 2.0 | 5.0 | 0.00 | 0.28 | 0.00 | 85 | 1026.1 |
| 20260507073039 | 27 | 340 | 1.0 | 5.0 | 0.00 | 0.28 | 0.00 | 86 | 1026.2 |
| 20260507071553 | 27 | 355 | 2.0 | 5.0 | 0.00 | 0.28 | 0.00 | 88 | 1026.2 |
| 20260507070037 | 27 | 360 | 2.0 | 5.0 | 0.00 | 0.28 | 0.00 | 91 | 1026.2 |
| 20260507064533 | 26 | 355 | 1.0 | 4.0 | 0.00 | 0.28 | 0.00 | 92 | 1026.3 |
| 20260507063035 | 26 | 348 | 2.0 | 4.0 | 0.00 | 0.28 | 0.00 | 93 | 1026.3 |
| 20260507061530 | 26 | 348 | 1.0 | 3.0 | 0.00 | 0.28 | 0.00 | 93 | 1026.3 |
| 20260507060032 | 26 | 338 | 1.0 | 3.0 | 0.00 | 0.28 | 0.00 | 93 | 1026.2 |
| 20260507054526 | 26 | 330 | 2.0 | 4.0 | 0.00 | 0.28 | 0.28 | 93 | 1026.1 |
| 20260507053026 | 27 | 317 | 2.0 | 4.0 | 0.00 | 0.28 | 0.28 | 93 | 1026.1 |
| 20260507051525 | 27 | 311 | 3.0 | 6.0 | 0.00 | 0.28 | 0.28 | 93 | 1026.1 |
| 20260507050024 | 28 | 294 | 3.0 | 6.0 | 0.00 | 0.28 | 0.28 | 93 | 1026.1 |
| 20260507044524 | 28 | 284 | 5.0 | 10.0 | 0.00 | 0.28 | 0.28 | 93 | 1026.0 |
| 20260507043033 | 28 | 284 | 2.0 | 8.0 | 0.00 | 0.28 | 0.28 | 93 | 1026.0 |
| 20260507041524 | 28 | 298 | 6.0 | 11.0 | 0.00 | 0.28 | 0.28 | 92 | 1026.1 |
| 20260507040021 | 28 | 283 | 6.0 | 11.0 | 0.00 | 0.28 | 0.28 | 92 | 1026.0 |
| 20260507034521 | 28 | 290 | 2.0 | 7.0 | 0.00 | 0.28 | 0.28 | 91 | 1026.0 |
| 20260507033020 | 28 | 302 | 2.0 | 8.0 | 0.00 | 0.28 | 0.28 | 91 | 1026.0 |
| 20260507031518 | 28 | 298 | 6.0 | 12.0 | 0.00 | 0.28 | 0.28 | 91 | 1025.7 |
| 20260507030018 | 28 | 274 | 4.0 | 8.0 | 0.00 | 0.28 | 0.28 | 90 | 1025.5 |
| 20260507024517 | 29 | 252 | 4.0 | 8.0 | 0.00 | 0.28 | 0.28 | 90 | 1025.4 |
| 20260507023017 | 29 | 288 | 4.0 | 9.0 | 0.00 | 0.28 | 0.28 | 89 | 1025.4 |
| 20260507021517 | 29 | 269 | 4.0 | 8.0 | 0.00 | 0.28 | 0.28 | 88 | 1025.4 |
| 20260507020017 | 30 | 286 | 3.0 | 8.0 | 0.00 | 0.28 | 0.28 | 86 | 1025.2 |
| 20260507014517 | 31 | 275 | 3.0 | 8.0 | 0.00 | 0.28 | 0.28 | 85 | 1025.1 |
| 20260507013015 | 31 | 283 | 2.0 | 9.0 | 0.00 | 0.28 | 0.28 | 84 | 1025.0 |
| 20260507011530 | 32 | 275 | 5.0 | 9.0 | 0.00 | 0.28 | 0.28 | 81 | 1025.0 |
| 20260507010014 | 33 | 287 | 4.0 | 10.0 | 0.00 | 0.28 | 0.28 | 79 | 1024.8 |
| 20260507004518 | 34 | 263 | 6.0 | 8.0 | 0.00 | 0.28 | 0.28 | 78 | 1024.6 |
| 20260507003018 | 34 | 251 | 6.0 | 11.0 | 0.00 | 0.28 | 0.28 | 77 | 1024.6 |
| 20260507001512 | 34 | 286 | 4.0 | 8.0 | 0.00 | 0.28 | 0.28 | 79 | 1024.7 |
| 20260507000011 | 34 | 313 | 5.0 | 9.0 | 0.01 | 0.30 | 0.28 | 79 | 1025.0 |
| 20260506234512 | 34 | 326 | 5.0 | 7.0 | 0.01 | 0.30 | 0.28 | 78 | 1024.7 |
| 20260506233012 | 34 | 277 | 4.0 | 10.0 | 0.01 | 0.30 | 0.28 | 84 | 1024.8 |
| 20260506231508 | 34 | 294 | 3.0 | 7.0 | 0.02 | 0.30 | 0.28 | 84 | 1024.8 |
| 20260506230004 | 33 | 349 | 1.0 | 3.0 | 0.02 | 0.28 | 0.27 | 87 | 1024.8 |
| 20260506224503 | 32 | 46 | 1.0 | 5.0 | 0.02 | 0.28 | 0.27 | 89 | 1024.8 |
| 20260506223002 | 32 | 67 | 4.0 | 7.0 | 0.03 | 0.28 | 0.27 | 89 | 1024.9 |
| 20260506221501 | 31 | 86 | 3.0 | 9.0 | 0.03 | 0.28 | 0.26 | 89 | 1025.0 |
| 20260506220002 | 31 | 117 | 4.0 | 8.0 | 0.02 | 0.27 | 0.25 | 89 | 1025.1 |
| 20260506214601 | 31 | 80 | 5.0 | 10.0 | 0.04 | 0.27 | 0.25 | 90 | 1025.3 |
| 20260506213104 | 31 | 100 | 7.0 | 13.0 | 0.04 | 0.26 | 0.24 | 88 | 1025.2 |
| 20260506211559 | 31 | 50 | 3.0 | 8.0 | 0.04 | 0.25 | 0.23 | 89 | 1025.3 |
| 20260506210120 | 31 | 120 | 6.0 | 11.0 | 0.06 | 0.25 | 0.23 | 89 | 1025.1 |
| 20260506204557 | 31 | 75 | 5.0 | 10.0 | 0.05 | 0.24 | 0.21 | 90 | 1025.4 |
| 20260506203142 | 30 | 117 | 5.0 | 11.0 | 0.06 | 0.23 | 0.20 | 90 | 1025.4 |
| 20260506201556 | 31 | 96 | 6.0 | 13.0 | 0.07 | 0.22 | 0.19 | 91 | 1025.4 |
| 20260506200056 | 30 | 97 | 6.0 | 12.0 | 0.09 | 0.20 | 0.17 | 91 | 1025.3 |
| 20260506194555 | 31 | 116 | 6.0 | 12.0 | 0.11 | 0.19 | 0.16 | 91 | 1025.2 |
| 20260506193055 | 31 | 78 | 5.0 | 11.0 | 0.12 | 0.17 | 0.14 | 91 | 1025.1 |
| 20260506191559 | 32 | 100 | 8.0 | 14.0 | 0.10 | 0.14 | 0.11 | 90 | 1025.2 |
| 20260506190055 | 32 | 92 | 6.0 | 11.0 | 0.07 | 0.11 | 0.08 | 92 | 1025.1 |
| 20260506184555 | 30 | 99 | 0.0 | 0.0 | 0.05 | 0.10 | 0.05 | 92 | 1025.2 |
| 20260506183046 | 30 | 103 | 0.0 | 0.0 | 0.02 | 0.07 | 0.02 | 93 | 1025.4 |
| 20260506181544 | 30 | 95 | 0.0 | 8.0 | 0.01 | 0.06 | 0.01 | 93 | 1025.5 |
| 20260506180043 | 29 | 95 | 0.0 | 12.0 | 0.01 | 0.06 | 0.01 | 93 | 1025.4 |
| 20260506174538 | 28 | 71 | 4.0 | 11.0 | 0.00 | 0.07 | 0.00 | 93 | 1025.2 |
| 20260506173047 | 28 | 128 | 6.0 | 9.0 | 0.00 | 0.07 | 0.00 | 93 | 1025.3 |
| 20260506171536 | 28 | 144 | 3.0 | 7.0 | 0.00 | 0.07 | 0.00 | 93 | 1024.6 |
| 20260506170032 | 28 | 92 | 4.0 | 9.0 | 0.00 | 0.07 | 0.00 | 93 | 1024.9 |